Time;durP1;ratioP1;P1;durP2;ratioP2;P2;SDS_P1;SDS_P2;PMS_P1;PMS_P2;Temp;Humidity;BMP_temperature;BMP_pressure;BME280_temperature;BME280_humidity;BME280_pressure;Samples;Min_cycle;Max_cycle;Signal;HPM_P1;HPM_P2
2022/02/26 00:00:13;;;;;;;12.80;9.25;;;;;;;0.55;100.00;99698.63;1767239;80;20970;-67
2022/02/26 00:02:41;;;;;;;11.60;9.20;;;;;;;0.45;100.00;99693.34;1758092;81;20928;-68
2022/02/26 00:05:12;;;;;;;13.40;10.58;;;;;;;0.39;100.00;99696.19;1758436;81;20921;-68
2022/02/26 00:07:39;;;;;;;11.38;8.65;;;;;;;0.35;100.00;99696.26;1766705;81;20912;-68
2022/02/26 00:10:10;;;;;;;13.95;10.03;;;;;;;0.33;100.00;99700.39;1769333;81;21039;-68
2022/02/26 00:12:39;;;;;;;16.12;11.00;;;;;;;0.18;100.00;99706.19;1764896;81;21471;-68
2022/02/26 00:15:10;;;;;;;16.73;11.20;;;;;;;0.08;100.00;99706.46;1786716;79;21154;-68
2022/02/26 00:17:37;;;;;;;18.40;11.80;;;;;;;0.03;100.00;99712.78;1799576;79;20897;-68
2022/02/26 00:20:08;;;;;;;20.23;13.08;;;;;;;-0.03;100.00;99709.54;1799311;79;21538;-67
2022/02/26 00:22:35;;;;;;;19.50;12.93;;;;;;;-0.10;100.00;99709.94;1737341;82;21036;-68
2022/02/26 00:25:10;;;;;;;27.82;14.80;;;;;;;-0.15;100.00;99713.63;1784714;79;21517;-67
2022/02/26 00:27:40;;;;;;;24.40;15.15;;;;;;;-0.25;100.00;99714.69;1779969;79;21518;-68
2022/02/26 00:30:10;;;;;;;26.12;15.53;;;;;;;-0.31;100.00;99719.37;1768230;80;28091;-68
2022/02/26 00:32:37;;;;;;;22.22;14.83;;;;;;;-0.36;100.00;99716.97;1788169;79;20908;-66
2022/02/26 00:35:05;;;;;;;28.47;18.75;;;;;;;-0.44;100.00;99719.18;1799915;79;20988;-66
2022/02/26 00:37:32;;;;;;;;;;;;;;;-0.54;100.00;99719.91;1763266;81;21478;-66
2022/02/26 00:40:01;;;;;;;31.35;20.23;;;;;;;-0.62;100.00;99719.47;1797902;79;20094;-66
2022/02/26 00:42:30;;;;;;;26.73;20.08;;;;;;;-0.69;100.00;99722.49;1799193;79;20909;-66
2022/02/26 00:44:58;;;;;;;;;;;;;;;-0.71;100.00;99725.80;1724917;80;21016;-66
2022/02/26 00:47:25;;;;;;;40.50;19.67;;;;;;;-0.72;100.00;99719.72;1789028;79;20197;-66
2022/02/26 00:49:52;;;;;;;48.65;28.67;;;;;;;-0.71;100.00;99724.01;1750368;82;21423;-66
2022/02/26 00:52:29;;;;;;;39.80;24.37;;;;;;;-0.74;100.00;99720.89;1783585;79;21395;-67
2022/02/26 00:54:58;;;;;;;30.65;19.67;;;;;;;-0.79;100.00;99728.00;1742949;82;21086;-66
2022/02/26 00:57:25;;;;;;;25.72;17.48;;;;;;;-0.85;100.00;99725.27;1749949;81;20939;-66
2022/02/26 00:59:52;;;;;;;20.85;14.13;;;;;;;-0.91;100.00;99724.13;1742323;80;20984;-66
2022/02/26 01:02:21;;;;;;;14.15;11.83;;;;;;;-0.96;100.00;99729.11;1758675;81;21133;-65
2022/02/26 01:04:48;;;;;;;12.90;11.20;;;;;;;-1.00;100.00;99730.47;1758847;81;20935;-67
2022/02/26 01:07:15;;;;;;;13.83;10.82;;;;;;;-1.03;100.00;99730.30;1758579;81;21054;-66
2022/02/26 01:09:42;;;;;;;20.55;14.80;;;;;;;-1.03;100.00;99734.25;1756189;81;21002;-68
2022/02/26 01:12:09;;;;;;;13.62;10.85;;;;;;;-1.07;100.00;99741.37;1755176;80;20939;-67
2022/02/26 01:14:38;;;;;;;12.88;9.75;;;;;;;-1.17;100.00;99743.73;1719544;83;21122;-66
2022/02/26 01:17:07;;;;;;;15.38;10.30;;;;;;;-1.19;100.00;99741.76;1710047;84;20971;-67
2022/02/26 01:19:35;;;;;;;12.23;10.30;;;;;;;-1.23;100.00;99744.91;1715629;82;21463;-67
2022/02/26 01:22:06;;;;;;;15.25;10.78;;;;;;;-1.25;100.00;99749.52;1735526;81;26154;-67
2022/02/26 01:24:33;;;;;;;22.32;12.78;;;;;;;-1.27;100.00;99751.03;1748069;81;21040;-68
2022/02/26 01:27:01;;;;;;;18.40;12.58;;;;;;;-1.34;100.00;99748.25;1769846;81;21176;-68
2022/02/26 01:29:32;;;;;;;23.65;14.35;;;;;;;-1.32;100.00;99747.59;1769850;81;21483;-68
2022/02/26 01:31:59;;;;;;;27.58;15.23;;;;;;;-1.28;100.00;99753.32;1761860;79;20988;-69
2022/02/26 01:34:26;;;;;;;25.00;13.72;;;;;;;-1.34;100.00;99752.20;1765107;80;20949;-68
2022/02/26 01:36:53;;;;;;;20.25;13.62;;;;;;;-1.35;100.00;99755.84;1769028;81;21023;-69
2022/02/26 01:39:24;;;;;;;29.12;15.80;;;;;;;-1.34;100.00;99752.20;1770123;81;21159;-68
2022/02/26 01:41:49;;;;;;;22.15;13.00;;;;;;;-1.33;100.00;99745.93;1770322;79;20936;-70
2022/02/26 01:44:17;;;;;;;21.23;13.10;;;;;;;-1.40;100.00;99750.74;1766701;79;20890;-69
2022/02/26 01:46:44;;;;;;;21.77;13.93;;;;;;;-1.40;100.00;99751.56;1769472;80;21554;-69
2022/02/26 01:49:11;;;;;;;18.50;13.95;;;;;;;-1.42;100.00;99746.14;1770196;81;21380;-68
2022/02/26 01:51:41;;;;;;;21.10;13.55;;;;;;;-1.42;100.00;99751.41;1770150;81;21832;-69
2022/02/26 01:54:08;;;;;;;15.50;12.30;;;;;;;-1.46;100.00;99753.58;1756622;81;21000;-69
2022/02/26 01:56:36;;;;;;;22.42;14.05;;;;;;;-1.53;100.00;99749.48;1768157;81;21509;-68
2022/02/26 01:59:03;;;;;;;17.80;13.80;;;;;;;-1.55;100.00;99758.03;1768726;81;21546;-68
2022/02/26 02:01:30;;;;;;;17.52;12.75;;;;;;;-1.49;100.00;99750.45;1768028;80;21032;-69
2022/02/26 02:04:02;;;;;;;19.98;13.68;;;;;;;-1.42;100.00;99757.98;1739467;81;21284;-69
2022/02/26 02:06:29;;;;;;;18.20;14.10;;;;;;;-1.36;100.00;99754.69;1739107;81;21051;-68
2022/02/26 02:08:57;;;;;;;21.93;14.55;;;;;;;-1.41;100.00;99763.59;1763204;81;21521;-69
2022/02/26 02:11:24;;;;;;;19.05;15.28;;;;;;;-1.46;100.00;99766.73;1750670;80;21490;-69
2022/02/26 02:13:53;;;;;;;27.27;17.25;;;;;;;-1.51;100.00;99759.34;1799871;79;20894;-70
2022/02/26 02:16:19;;;;;;;24.15;17.75;;;;;;;-1.46;100.00;99764.11;1816105;78;26902;-69
2022/02/26 02:18:46;;;;;;;28.83;20.68;;;;;;;-1.46;100.00;99761.97;1812003;78;20976;-69
2022/02/26 02:21:13;;;;;;;50.70;29.40;;;;;;;-1.43;100.00;99766.89;1790842;79;20965;-69
2022/02/26 02:23:42;;;;;;;43.52;27.87;;;;;;;-1.41;100.00;99772.81;1785211;79;20927;-69
2022/02/26 02:26:09;;;;;;;44.38;27.80;;;;;;;-1.36;100.00;99771.80;1796930;79;21507;-69
2022/02/26 02:28:37;;;;;;;34.40;24.72;;;;;;;-1.40;100.00;99766.04;1788154;79;21055;-69
2022/02/26 02:31:07;;;;;;;42.35;27.00;;;;;;;-1.45;100.00;99767.55;1793307;79;20985;-69
2022/02/26 02:33:45;;;;;;;39.58;26.35;;;;;;;-1.45;100.00;99770.19;1783707;79;20966;-69
2022/02/26 02:36:18;;;;;;;28.23;19.32;;;;;;;-1.46;100.00;99771.19;1793182;79;20980;-69
2022/02/26 02:38:45;;;;;;;40.38;23.67;;;;;;;-1.46;100.00;99775.95;1781084;79;21047;-70
2022/02/26 02:41:12;;;;;;;40.03;24.05;;;;;;;-1.52;100.00;99776.15;1787260;79;21147;-70
2022/02/26 02:43:41;;;;;;;33.30;22.48;;;;;;;-1.54;100.00;99782.58;1789826;79;20900;-69
2022/02/26 02:46:08;;;;;;;36.58;25.08;;;;;;;-1.54;100.00;99782.07;1785798;79;21565;-70
2022/02/26 02:48:38;;;;;;;35.95;25.00;;;;;;;-1.52;100.00;99781.41;1783086;79;20961;-70
2022/02/26 02:51:05;;;;;;;38.35;21.87;;;;;;;-1.52;100.00;99791.09;1788625;79;21483;-70
2022/02/26 02:53:33;;;;;;;25.85;16.77;;;;;;;-1.54;100.00;99793.92;1798571;79;21804;-69
2022/02/26 02:56:00;;;;;;;23.97;16.60;;;;;;;-1.51;100.00;99790.94;1799710;79;20858;-69
2022/02/26 02:58:29;;;;;;;28.00;19.02;;;;;;;-1.48;100.00;99797.67;1790444;79;20956;-68
2022/02/26 03:00:57;;;;;;;22.67;17.05;;;;;;;-1.43;100.00;99799.80;1794295;79;20948;-68
2022/02/26 03:03:25;;;;;;;31.82;19.37;;;;;;;-1.39;100.00;99804.56;1799716;79;20992;-67
2022/02/26 03:05:52;;;;;;;32.33;21.00;;;;;;;-1.39;100.00;99808.52;1799547;79;21089;-68
2022/02/26 03:08:23;;;;;;;28.05;19.10;;;;;;;-1.44;100.00;99809.52;1798217;79;20830;-66
2022/02/26 03:10:48;;;;;;;30.30;18.12;;;;;;;-1.42;100.00;99811.97;1731297;82;20928;-68
2022/02/26 03:13:15;;;;;;;27.37;19.02;;;;;;;-1.45;100.00;99812.31;1787792;79;20932;-67
2022/02/26 03:15:41;;;;;;;28.98;19.98;;;;;;;-1.54;100.00;99813.66;1686010;82;21043;-67
2022/02/26 03:18:08;;;;;;;29.30;19.32;;;;;;;-1.54;100.00;99824.70;1688606;83;21944;-67
2022/02/26 03:20:36;;;;;;;27.37;18.37;;;;;;;-1.49;100.00;99825.48;1695599;83;21102;-67
2022/02/26 03:23:03;;;;;;;29.80;16.37;;;;;;;-1.46;100.00;99827.30;1693586;84;21004;-68
2022/02/26 03:25:29;;;;;;;25.08;17.73;;;;;;;-1.49;100.00;99829.42;1692165;82;21099;-68
2022/02/26 03:27:56;;;;;;;25.25;16.62;;;;;;;-1.49;100.00;99833.37;1691703;84;20966;-68
2022/02/26 03:30:23;;;;;;;22.42;13.53;;;;;;;-1.56;100.00;99841.96;1692490;84;21079;-67
2022/02/26 03:32:49;;;;;;;18.62;12.90;;;;;;;-1.59;100.00;99840.99;1691957;84;21139;-68
2022/02/26 03:35:16;;;;;;;21.42;14.33;;;;;;;-1.59;100.00;99845.44;1711259;82;20951;-68
2022/02/26 03:37:44;;;;;;;17.32;13.58;;;;;;;-1.62;100.00;99850.52;1734787;82;21033;-67
2022/02/26 03:40:12;;;;;;;14.80;12.50;;;;;;;-1.60;100.00;99855.63;1672130;85;21521;-68
2022/02/26 03:42:41;;;;;;;19.65;13.32;;;;;;;-1.61;100.00;99854.81;1683260;85;21155;-68
2022/02/26 03:45:10;;;;;;;21.73;15.75;;;;;;;-1.58;100.00;99854.47;1674656;85;20976;-68
2022/02/26 03:47:37;;;;;;;20.72;15.35;;;;;;;-1.57;100.00;99865.34;1682475;85;21497;-68
2022/02/26 03:50:05;;;;;;;22.25;15.80;;;;;;;-1.61;100.00;99864.52;1663663;84;21382;-68
2022/02/26 03:52:32;;;;;;;22.40;14.35;;;;;;;-1.64;100.00;99870.95;1632873;87;21404;-67
2022/02/26 03:55:02;;;;;;;24.47;15.13;;;;;;;-1.65;100.00;99875.05;1649542;87;21154;-68
2022/02/26 03:57:27;;;;;;;18.98;13.75;;;;;;;-1.66;100.00;99891.84;1677070;85;21498;-68
2022/02/26 03:59:53;;;;;;;20.88;13.65;;;;;;;-1.67;100.00;99884.91;1669330;86;20923;-68
2022/02/26 04:02:20;;;;;;;21.25;13.50;;;;;;;-1.65;100.00;99896.92;1669627;86;20970;-68
2022/02/26 04:04:46;;;;;;;23.95;15.43;;;;;;;-1.67;100.00;99900.20;1669439;86;20915;-68
2022/02/26 04:07:13;;;;;;;24.18;13.72;;;;;;;-1.68;100.00;99909.61;1669812;86;21129;-68
2022/02/26 04:09:41;;;;;;;16.45;12.40;;;;;;;-1.68;100.00;99901.70;1669443;85;21412;-67
2022/02/26 04:12:10;;;;;;;20.05;14.73;;;;;;;-1.67;100.00;99910.73;1669436;86;20938;-68
2022/02/26 04:14:36;;;;;;;17.00;13.75;;;;;;;-1.64;100.00;99905.63;1673527;83;21556;-68
2022/02/26 04:17:04;;;;;;;18.82;13.90;;;;;;;-1.66;100.00;99912.40;1702241;84;20996;-68
2022/02/26 04:19:31;;;;;;;20.48;15.13;;;;;;;-1.66;100.00;99916.84;1733238;82;21157;-68
2022/02/26 04:21:58;;;;;;;31.42;14.00;;;;;;;-1.71;100.00;99921.28;1709385;84;20937;-67
2022/02/26 04:24:25;;;;;;;21.73;14.98;;;;;;;-1.77;100.00;99929.83;1702164;84;21583;-68
2022/02/26 04:26:52;;;;;;;28.77;14.60;;;;;;;-1.79;100.00;99929.16;1709507;84;21432;-68
2022/02/26 04:29:19;;;;;;;27.58;18.00;;;;;;;-1.83;100.00;99931.31;1702216;84;21534;-68
2022/02/26 04:31:46;;;;;;;33.10;18.45;;;;;;;-1.82;100.00;99935.58;1709293;84;21065;-69
2022/02/26 04:34:13;;;;;;;29.05;18.55;;;;;;;-1.83;100.00;99945.78;1702346;84;21424;-69
2022/02/26 04:36:39;;;;;;;27.05;17.45;;;;;;;-1.88;100.00;99940.70;1709402;84;20941;-71
2022/02/26 04:39:06;;;;;;;26.77;17.50;;;;;;;-1.88;100.00;99952.53;1702136;84;20993;-68
2022/02/26 04:41:33;;;;;;;20.97;17.27;;;;;;;-1.89;100.00;99954.81;1709270;84;20917;-69
2022/02/26 04:43:59;;;;;;;22.00;16.20;;;;;;;-1.89;100.00;99958.77;1702321;84;21264;-69
2022/02/26 04:46:27;;;;;;;20.45;15.50;;;;;;;-1.88;100.00;99955.16;1709162;84;20985;-70
2022/02/26 04:48:54;;;;;;;26.30;16.70;;;;;;;-1.89;100.00;99967.47;1702464;84;21468;-69
2022/02/26 04:51:20;;;;;;;37.55;21.05;;;;;;;-1.90;100.00;99964.53;1709384;84;21456;-68
2022/02/26 04:53:49;;;;;;;37.90;23.35;;;;;;;-1.86;100.00;99976.85;1702312;84;20897;-69
2022/02/26 04:56:15;;;;;;;39.15;22.60;;;;;;;-1.86;100.00;99979.02;1709410;84;21945;-69
2022/02/26 04:58:42;;;;;;;35.68;21.50;;;;;;;-1.86;100.00;99982.95;1702169;84;21503;-69
2022/02/26 05:01:09;;;;;;;27.48;18.00;;;;;;;-1.87;100.00;99984.42;1709367;84;21538;-68
2022/02/26 05:03:36;;;;;;;23.98;16.23;;;;;;;-1.88;100.00;99990.19;1702329;84;21546;-69
2022/02/26 05:06:04;;;;;;;26.68;16.07;;;;;;;-1.87;100.00;99993.14;1709446;84;21547;-69
2022/02/26 05:08:31;;;;;;;20.10;13.90;;;;;;;-1.88;100.00;99998.58;1702153;84;21164;-68
2022/02/26 05:10:57;;;;;;;25.45;16.80;;;;;;;-1.92;100.00;100001.19;1709094;84;20987;-69
2022/02/26 05:13:26;;;;;;;19.62;14.43;;;;;;;-1.97;100.00;100010.38;1702357;84;21005;-69
2022/02/26 05:15:53;;;;;;;22.07;12.90;;;;;;;-1.95;100.00;100001.03;1698346;84;21468;-68
2022/02/26 05:18:19;;;;;;;19.98;13.20;;;;;;;-1.88;100.00;100011.73;1668060;86;20880;-69
2022/02/26 05:20:46;;;;;;;19.75;13.62;;;;;;;-1.80;100.00;100014.38;1697671;84;21137;-69
2022/02/26 05:23:13;;;;;;;20.00;12.13;;;;;;;-1.72;100.00;100018.32;1697477;84;20877;-69
2022/02/26 05:25:39;;;;;;;16.00;12.20;;;;;;;-1.73;100.00;100021.45;1697745;84;21017;-69
2022/02/26 05:28:06;;;;;;;20.72;13.58;;;;;;;-1.75;100.00;100020.78;1697770;84;20940;-70
2022/02/26 05:30:33;;;;;;;21.95;13.25;;;;;;;-1.75;100.00;100027.37;1697759;84;20846;-68
2022/02/26 05:33:00;;;;;;;20.25;13.35;;;;;;;-1.78;100.00;100025.06;1686955;84;21798;-68
2022/02/26 05:35:26;;;;;;;17.32;11.55;;;;;;;-1.73;100.00;100029.84;1686794;85;20934;-69
2022/02/26 05:37:53;;;;;;;15.63;11.90;;;;;;;-1.59;100.00;100037.11;1667940;86;21441;-68
2022/02/26 05:40:20;;;;;;;15.88;11.22;;;;;;;-1.43;100.00;100043.36;1698135;84;20989;-69
2022/02/26 05:42:48;;;;;;;12.53;9.98;;;;;;;-1.25;100.00;100044.04;1698306;84;21476;-70
2022/02/26 05:45:15;;;;;;;13.43;11.00;;;;;;;-1.06;100.00;100042.86;1687177;85;21964;-70
2022/02/26 05:47:43;;;;;;;12.63;9.88;;;;;;;-0.93;100.00;100052.41;1686908;85;20953;-70
2022/02/26 05:50:10;;;;;;;12.05;9.60;;;;;;;-0.83;100.00;100053.55;1697725;84;20911;-70
2022/02/26 05:52:39;;;;;;;11.60;8.80;;;;;;;-0.69;100.00;100059.93;1697682;84;21075;-70
2022/02/26 05:55:06;;;;;;;12.80;9.38;;;;;;;-0.54;100.00;100065.33;1697747;84;20999;-70
2022/02/26 05:57:34;;;;;;;16.37;9.60;;;;;;;-0.40;100.00;100069.91;1697846;84;21834;-69
2022/02/26 06:00:00;;;;;;;11.12;9.85;;;;;;;-0.26;100.00;100073.66;1697788;83;20869;-69
2022/02/26 06:02:27;;;;;;;9.73;8.73;;;;;;;-0.26;100.00;100077.12;1697593;84;21550;-70
2022/02/26 06:04:54;;;;;;;15.00;10.05;;;;;;;-0.09;100.00;100083.16;1697623;84;20889;-70
2022/02/26 06:07:21;;;;;;;13.93;9.00;;;;;;;0.15;100.00;100078.77;1697712;84;21006;-71
2022/02/26 06:09:50;;;;;;;12.18;8.70;;;;;;;0.32;100.00;100087.39;1697699;84;20924;-70
2022/02/26 06:12:16;;;;;;;12.28;8.53;;;;;;;0.43;100.00;100086.51;1697711;84;21550;-69
2022/02/26 06:14:43;;;;;;;12.23;7.87;;;;;;;0.52;100.00;100095.22;1697857;84;21498;-68
2022/02/26 06:17:12;;;;;;;11.12;7.60;;;;;;;0.61;100.00;100103.42;1729487;81;20917;-69
2022/02/26 06:19:39;;;;;;;13.75;8.63;;;;;;;0.68;100.00;100111.44;1716760;82;20980;-69
2022/02/26 06:22:06;;;;;;;10.00;7.47;;;;;;;0.82;100.00;100107.23;1732882;82;21161;-69
2022/02/26 06:24:33;;;;;;;9.40;7.83;;;;;;;0.88;100.00;100111.79;1732873;82;20878;-68
2022/02/26 06:27:00;;;;;;;13.10;8.45;;;;;;;0.93;100.00;100120.04;1733091;82;20937;-70
2022/02/26 06:29:26;;;;;;;15.88;10.82;;;;;;;1.18;100.00;100127.77;1716534;82;20976;-68
2022/02/26 06:31:53;;;;;;;11.70;8.93;;;;;;;1.36;100.00;100121.64;1732881;82;20885;-68
2022/02/26 06:34:21;;;;;;;10.23;7.42;;;;;;;1.44;100.00;100130.00;1733015;82;21785;-68
2022/02/26 06:36:48;;;;;;;9.35;7.08;;;;;;;1.53;100.00;100131.57;1733313;82;20933;-67
2022/02/26 06:39:15;;;;;;;10.35;7.17;;;;;;;1.86;100.00;100138.67;1733092;82;20972;-69
2022/02/26 06:41:42;;;;;;;11.85;8.38;;;;;;;2.01;100.00;100141.31;1732769;82;20980;-69
2022/02/26 06:44:09;;;;;;;9.03;6.83;;;;;;;2.28;100.00;100147.77;1733356;82;20937;-69
2022/02/26 06:46:37;;;;;;;8.53;6.42;;;;;;;2.56;100.00;100155.02;1732967;82;21159;-67
2022/02/26 06:49:05;;;;;;;11.88;6.65;;;;;;;2.67;100.00;100149.24;1733263;82;21519;-68
2022/02/26 06:51:33;;;;;;;7.75;5.60;;;;;;;2.73;100.00;100148.98;1733048;82;20936;-68
2022/02/26 06:54:01;;;;;;;7.72;6.50;;;;;;;2.81;100.00;100157.33;1733115;82;20957;-68
2022/02/26 06:56:28;;;;;;;9.95;6.95;;;;;;;2.73;100.00;100151.12;1733073;82;20966;-69
2022/02/26 06:58:55;;;;;;;9.98;6.40;;;;;;;2.60;100.00;100159.43;1733296;82;21803;-68
2022/02/26 07:01:22;;;;;;;10.28;6.05;;;;;;;2.86;100.00;100161.55;1732773;82;20969;-68
2022/02/26 07:03:48;;;;;;;9.43;6.17;;;;;;;2.93;100.00;100166.42;1732929;82;20976;-68
2022/02/26 07:06:15;;;;;;;10.13;6.62;;;;;;;3.24;100.00;100171.42;1732870;82;20873;-68
2022/02/26 07:08:42;;;;;;;11.38;6.30;;;;;;;3.74;100.00;100172.72;1732918;82;21018;-67
2022/02/26 07:11:09;;;;;;;10.03;6.22;;;;;;;3.78;100.00;100171.33;1732961;82;21171;-68
2022/02/26 07:13:36;;;;;;;8.28;5.80;;;;;;;3.84;100.00;100170.53;1732997;82;21581;-69
2022/02/26 07:16:04;;;;;;;10.03;5.70;;;;;;;3.80;100.00;100175.94;1723169;82;20968;-68
2022/02/26 07:18:32;;;;;;;10.78;6.37;;;;;;;3.88;100.00;100182.94;1697882;84;20880;-68
2022/02/26 07:20:58;;;;;;;10.82;6.45;;;;;;;3.99;100.00;100185.03;1697601;83;20932;-69
2022/02/26 07:23:25;;;;;;;9.88;6.40;;;;;;;4.27;100.00;100188.98;1697579;84;22002;-68
2022/02/26 07:25:52;;;;;;;12.33;7.83;;;;;;;4.14;100.00;100184.91;1697655;84;20993;-69
2022/02/26 07:28:18;;;;;;;12.30;7.17;;;;;;;4.02;100.00;100184.66;1697586;83;20964;-68
2022/02/26 07:30:46;;;;;;;10.15;6.83;;;;;;;4.21;100.00;100186.58;1697608;84;21435;-68
2022/02/26 07:33:13;;;;;;;12.63;7.65;;;;;;;4.10;100.00;100194.31;1697955;84;20929;-68
2022/02/26 07:35:39;;;;;;;10.88;7.30;;;;;;;4.28;100.00;100194.59;1697415;84;21135;-68
2022/02/26 07:38:06;;;;;;;13.93;8.43;;;;;;;4.56;100.00;100188.38;1697371;84;20984;-69
2022/02/26 07:40:36;;;;;;;13.40;8.23;;;;;;;4.56;100.00;100204.32;1697670;84;20980;-69
2022/02/26 07:43:06;;;;;;;11.45;7.28;;;;;;;4.67;100.00;100209.08;1697545;84;21003;-69
2022/02/26 07:45:32;;;;;;;11.73;6.75;;;;;;;5.07;100.00;100219.34;1697854;84;21458;-68
2022/02/26 07:47:59;;;;;;;21.82;8.38;;;;;;;5.47;100.00;100216.73;1697746;84;21863;-68
2022/02/26 07:50:26;;;;;;;14.75;8.23;;;;;;;5.58;100.00;100216.63;1677238;84;20984;-67
2022/02/26 07:52:53;;;;;;;18.17;10.50;;;;;;;5.46;100.00;100221.73;1697649;84;20957;-69
2022/02/26 07:55:20;;;;;;;20.70;8.63;;;;;;;5.45;100.00;100220.63;1697482;84;20936;-66
2022/02/26 07:57:47;;;;;;;11.12;6.45;;;;;;;5.28;100.00;100222.86;1697595;84;21079;-68
2022/02/26 08:00:14;;;;;;;14.98;7.78;;;;;;;5.52;100.00;100222.78;1697551;84;21155;-68
2022/02/26 08:02:42;;;;;;;8.70;6.12;;;;;;;5.66;100.00;100228.42;1697687;84;20937;-68
2022/02/26 08:05:10;;;;;;;10.82;5.45;;;;;;;5.72;97.07;100229.44;1697680;84;21483;-68
2022/02/26 08:07:37;;;;;;;10.25;6.10;;;;;;;6.05;98.76;100233.95;1697608;84;20960;-68
2022/02/26 08:10:05;;;;;;;11.40;6.53;;;;;;;6.54;95.64;100232.59;1697529;84;20886;-68
2022/02/26 08:12:33;;;;;;;11.20;5.65;;;;;;;6.40;92.21;100233.98;1697763;84;21894;-68
2022/02/26 08:14:59;;;;;;;8.63;5.78;;;;;;;6.37;90.85;100232.23;1697654;84;20909;-69
2022/02/26 08:17:26;;;;;;;9.75;5.62;;;;;;;6.58;90.04;100238.63;1697457;80;20944;-68
2022/02/26 08:19:53;;;;;;;7.72;4.28;;;;;;;6.77;88.44;100236.11;1697712;84;20949;-67
2022/02/26 08:22:19;;;;;;;8.98;5.37;;;;;;;7.13;82.93;100242.70;1697442;83;20953;-67
2022/02/26 08:24:46;;;;;;;6.65;4.37;;;;;;;7.42;79.70;100241.28;1697715;84;21561;-67
2022/02/26 08:27:22;;;;;;;8.50;4.75;;;;;;;7.43;73.59;100241.60;1697545;84;21407;-68
2022/02/26 08:29:50;;;;;;;10.80;5.05;;;;;;;7.79;74.75;100247.60;1696997;84;21550;-67
2022/02/26 08:32:18;;;;;;;10.13;7.45;;;;;;;7.94;73.08;100244.59;1697430;84;20973;-68
2022/02/26 08:34:45;;;;;;;8.65;5.55;;;;;;;7.84;70.34;100245.59;1697638;84;21001;-67
2022/02/26 08:37:12;;;;;;;8.55;5.85;;;;;;;7.88;70.98;100249.47;1697471;84;21161;-68
2022/02/26 08:39:38;;;;;;;9.88;5.50;;;;;;;7.66;72.60;100245.83;1697887;84;20984;-66
2022/02/26 08:42:06;;;;;;;6.10;3.98;;;;;;;7.47;71.50;100254.31;1697589;84;20960;-68
2022/02/26 08:44:33;;;;;;;6.05;3.22;;;;;;;7.49;70.02;100252.22;1697847;84;24571;-68
2022/02/26 08:47:00;;;;;;;9.23;5.00;;;;;;;7.51;69.28;100254.16;1697764;84;20993;-68
2022/02/26 08:49:27;;;;;;;8.40;4.28;;;;;;;7.94;66.00;100264.12;1697960;84;21157;-68
2022/02/26 08:51:53;;;;;;;10.78;6.12;;;;;;;8.09;65.38;100257.09;1697763;84;20955;-67
2022/02/26 08:54:20;;;;;;;8.30;6.03;;;;;;;7.89;65.99;100263.14;1697756;84;20849;-67
2022/02/26 08:56:48;;;;;;;18.32;11.83;;;;;;;7.92;66.24;100264.04;1697689;83;20968;-68
2022/02/26 08:59:15;;;;;;;30.75;18.90;;;;;;;8.22;62.29;100264.17;1697886;84;21415;-68
2022/02/26 09:01:41;;;;;;;17.62;9.80;;;;;;;8.24;62.81;100271.45;1697745;84;21129;-67
2022/02/26 09:04:08;;;;;;;9.63;6.17;;;;;;;8.55;63.70;100273.23;1697695;84;21036;-67
2022/02/26 09:06:35;;;;;;;6.78;3.70;;;;;;;8.72;61.29;100270.78;1697640;84;20889;-67
2022/02/26 09:09:04;;;;;;;9.03;6.20;;;;;;;8.77;59.26;100272.26;1697541;84;21003;-68
2022/02/26 09:11:31;;;;;;;6.40;3.98;;;;;;;8.59;58.61;100269.58;1697829;84;21459;-67
2022/02/26 09:13:57;;;;;;;3.65;2.95;;;;;;;8.86;57.14;100279.45;1697691;84;21496;-67
2022/02/26 09:16:24;;;;;;;5.97;3.10;;;;;;;8.72;56.70;100277.47;1703129;81;20957;-68
2022/02/26 09:18:51;;;;;;;5.92;3.05;;;;;;;8.37;55.31;100283.88;1733067;82;21455;-67
2022/02/26 09:21:17;;;;;;;4.85;3.17;;;;;;;8.54;56.38;100285.48;1733121;82;21037;-67
2022/02/26 09:23:44;;;;;;;5.80;3.25;;;;;;;8.30;56.26;100279.92;1733081;82;20993;-68
2022/02/26 09:26:11;;;;;;;4.50;2.75;;;;;;;8.31;54.33;100287.45;1733079;82;21204;-67
2022/02/26 09:28:41;;;;;;;8.08;5.50;;;;;;;8.22;54.54;100282.08;1732837;82;21495;-68
2022/02/26 09:31:09;;;;;;;7.20;4.80;;;;;;;8.22;53.46;100276.73;1732975;82;20945;-67
2022/02/26 09:33:36;;;;;;;7.92;3.95;;;;;;;8.12;53.33;100267.34;1733091;82;20992;-66
2022/02/26 09:36:03;;;;;;;7.45;3.65;;;;;;;8.29;52.63;100284.17;1732981;82;20953;-67
2022/02/26 09:38:29;;;;;;;8.58;3.77;;;;;;;8.79;53.13;100282.23;1733122;82;21803;-67
2022/02/26 09:41:00;;;;;;;5.58;2.90;;;;;;;9.14;51.65;100292.30;1732907;82;21514;-68
2022/02/26 09:43:27;;;;;;;4.30;2.52;;;;;;;8.77;49.32;100288.81;1733001;82;20885;-68
2022/02/26 09:45:55;;;;;;;3.80;2.45;;;;;;;8.85;50.04;100294.41;1732823;82;21431;-67
2022/02/26 09:48:21;;;;;;;7.03;4.00;;;;;;;8.96;49.89;100294.98;1733308;82;22033;-67
2022/02/26 09:50:49;;;;;;;9.68;4.78;;;;;;;9.30;49.51;100298.87;1732882;82;21142;-68
2022/02/26 09:53:19;;;;;;;6.15;2.25;;;;;;;9.08;46.36;100301.22;1732831;82;20889;-65
2022/02/26 09:55:46;;;;;;;4.10;2.30;;;;;;;8.85;45.57;100305.13;1732937;82;20952;-67
2022/02/26 09:58:15;;;;;;;4.90;3.30;;;;;;;8.30;47.65;100317.89;1732726;82;20951;-68
2022/02/26 10:00:45;;;;;;;5.87;2.87;;;;;;;8.94;47.71;100308.61;1740506;82;21091;-67
2022/02/26 10:03:33;;;;;;;5.97;2.95;;;;;;;9.00;46.07;100311.72;1732683;82;21343;-68
2022/02/26 10:06:17;;;;;;;15.58;8.15;;;;;;;9.31;45.49;100315.75;1732916;82;20921;-68
2022/02/26 10:08:49;;;;;;;6.33;3.35;;;;;;;9.36;45.81;100307.87;1732896;82;20960;-69
2022/02/26 10:11:29;;;;;;;5.05;2.80;;;;;;;8.82;45.53;100315.76;1733000;82;20913;-68
2022/02/26 10:14:11;;;;;;;3.27;2.40;;;;;;;8.39;45.26;100315.23;1733154;82;21016;-67
2022/02/26 10:16:56;;;;;;;3.65;2.75;;;;;;;7.55;46.63;100320.54;1732339;82;21901;-66
2022/02/26 10:19:25;;;;;;;5.75;3.42;;;;;;;7.42;46.91;100318.74;1728063;83;20968;-67
2022/02/26 10:21:57;;;;;;;5.08;3.22;;;;;;;7.74;46.40;100315.55;1728143;83;20933;-68
2022/02/26 10:24:24;;;;;;;9.10;3.50;;;;;;;8.31;45.04;100328.91;1727981;82;20984;-68
2022/02/26 10:26:59;;;;;;;4.75;3.40;;;;;;;8.37;45.46;100322.66;1728369;83;21432;-66
2022/02/26 10:29:26;;;;;;;5.37;2.75;;;;;;;8.92;43.72;100317.91;1728170;83;21140;-67
2022/02/26 10:31:56;;;;;;;4.80;2.92;;;;;;;9.23;44.09;100320.91;1728168;83;20917;-67
2022/02/26 10:34:32;;;;;;;4.03;3.10;;;;;;;9.51;41.31;100334.27;1728147;83;20933;-68
2022/02/26 10:37:06;;;;;;;6.65;2.55;;;;;;;9.53;39.91;100337.51;1728239;83;20934;-68
2022/02/26 10:39:52;;;;;;;5.70;2.85;;;;;;;9.34;39.15;100334.89;1728336;83;20949;-67
2022/02/26 10:42:25;;;;;;;2.75;1.85;;;;;;;8.88;41.62;100326.09;1728201;83;21157;-67
2022/02/26 10:45:12;;;;;;;6.10;3.02;;;;;;;7.92;40.88;100329.53;1728132;83;20850;-66
2022/02/26 10:47:44;;;;;;;5.28;2.85;;;;;;;7.94;42.21;100342.98;1728210;83;20977;-68
2022/02/26 10:50:21;;;;;;;3.55;2.20;;;;;;;9.12;41.34;100341.77;1728396;83;21428;-69
2022/02/26 10:53:02;;;;;;;6.25;3.80;;;;;;;9.68;39.47;100343.30;1728330;83;21507;-69
2022/02/26 10:55:53;;;;;;;8.13;2.70;;;;;;;10.02;38.49;100341.75;1728481;83;21107;-68
2022/02/26 10:58:23;;;;;;;5.25;3.98;;;;;;;10.55;37.37;100345.94;1728099;83;20882;-68
2022/02/26 11:00:52;;;;;;;6.28;3.37;;;;;;;11.03;37.23;100337.59;1728538;83;20881;-68
2022/02/26 11:03:21;;;;;;;;;;;;;;;10.81;36.91;100342.77;1730979;83;20870;-67
2022/02/26 11:05:47;;;;;;;4.20;2.80;;;;;;;10.63;37.75;100346.92;1746511;81;20451;-68
2022/02/26 11:08:15;;;;;;;4.05;3.08;;;;;;;10.17;38.40;100349.34;1728150;83;21147;-67
2022/02/26 11:10:44;;;;;;;;;;;;;;;9.47;39.51;100347.81;1730641;83;20981;-69
2022/02/26 11:13:15;;;;;;;8.55;4.33;;;;;;;8.85;40.83;100350.64;1746272;82;20069;-68
2022/02/26 11:15:42;;;;;;;6.62;3.40;;;;;;;8.88;43.31;100356.88;1730985;83;21076;-68
2022/02/26 11:18:10;;;;;;;12.75;2.47;;;;;;;9.12;42.01;100350.62;1739868;81;20980;-68
2022/02/26 11:20:40;;;;;;;3.12;1.90;;;;;;;8.67;43.14;100354.09;1744516;81;20878;-68
2022/02/26 11:23:08;;;;;;;2.90;2.27;;;;;;;8.09;43.25;100359.23;1746428;82;28438;-67